Time;durP1;ratioP1;P1;durP2;ratioP2;P2;SDS_P1;SDS_P2;PMS_P1;PMS_P2;Temp;Humidity;BMP_temperature;BMP_pressure;BME280_temperature;BME280_humidity;BME280_pressure;Samples;Min_cycle;Max_cycle;Signal;HPM_P1;HPM_P2
2022/04/07 00:02:17;;;;;;;8.70;6.30;;;13.00;49.90;;;13.15;42.11;94074.84;5062929;28;20454;-54
2022/04/07 00:04:44;;;;;;;6.70;4.57;;;13.00;50.40;;;13.09;42.08;94062.34;5055893;28;20564;-55
2022/04/07 00:07:12;;;;;;;8.83;4.70;;;12.90;50.60;;;13.06;42.37;94065.34;5053014;28;20452;-56
2022/04/07 00:09:39;;;;;;;11.93;4.43;;;12.90;50.70;;;13.06;42.33;94060.06;5062332;28;20918;-54
2022/04/07 00:12:09;;;;;;;7.43;4.93;;;12.90;51.10;;;13.05;42.67;94059.22;5060874;28;20495;-54
2022/04/07 00:14:36;;;;;;;12.10;5.10;;;12.90;51.50;;;13.04;42.59;94057.59;5053072;28;20535;-55
2022/04/07 00:17:04;;;;;;;6.50;5.37;;;12.90;51.30;;;13.02;42.76;94048.19;5062454;28;20971;-55
2022/04/07 00:19:31;;;;;;;8.87;4.27;;;12.90;51.40;;;13.01;43.01;94051.81;5054996;28;20545;-54
2022/04/07 00:21:59;;;;;;;6.63;4.80;;;12.90;52.10;;;12.99;43.07;94043.25;5056874;28;20954;-58
2022/04/07 00:24:26;;;;;;;5.93;4.87;;;12.80;51.40;;;12.95;43.08;94045.44;5058724;28;20506;-56
2022/04/07 00:26:53;;;;;;;4.93;4.43;;;12.80;51.90;;;12.90;43.21;94029.28;5052049;28;20466;-54
2022/04/07 00:29:22;;;;;;;8.47;4.50;;;12.80;52.00;;;12.86;43.55;94028.00;5056669;28;20524;-55
2022/04/07 00:31:56;;;;;;;5.03;4.40;;;12.70;52.20;;;12.84;43.30;94022.06;5058101;28;20490;-56
2022/04/07 00:34:23;;;;;;;5.33;4.47;;;12.70;52.20;;;12.83;43.46;94013.34;5057302;28;20983;-56
2022/04/07 00:36:50;;;;;;;6.90;4.60;;;12.70;52.30;;;12.82;43.26;94011.69;5058665;28;20466;-55
2022/04/07 00:39:17;;;;;;;9.37;4.23;;;12.70;52.40;;;12.82;43.34;94024.06;5056931;28;20455;-55
2022/04/07 00:41:45;;;;;;;6.77;4.63;;;12.60;52.60;;;12.76;44.04;94025.59;5055018;28;20463;-57
2022/04/07 00:44:13;;;;;;;10.63;5.47;;;12.60;52.70;;;12.69;44.05;94022.81;5057028;28;20467;-55
2022/04/07 00:46:41;;;;;;;7.53;5.37;;;12.60;53.10;;;12.63;44.02;94030.63;5059777;28;20932;-55
2022/04/07 00:49:09;;;;;;;8.67;5.60;;;12.50;53.20;;;12.59;44.13;94031.94;5061099;28;20774;-57
2022/04/07 00:51:39;;;;;;;6.57;4.70;;;12.50;53.40;;;12.58;44.47;94030.28;5058348;28;20509;-57
2022/04/07 00:54:07;;;;;;;8.70;4.60;;;12.40;53.60;;;12.58;44.41;94019.75;5051806;28;20460;-55
2022/04/07 00:56:35;;;;;;;9.73;4.90;;;12.40;53.70;;;12.55;44.81;94002.47;5057863;28;20529;-56
2022/04/07 00:59:02;;;;;;;7.17;5.47;;;12.40;54.00;;;12.55;44.46;93999.84;5057089;28;20546;-55
2022/04/07 01:01:30;;;;;;;11.70;6.50;;;12.40;53.70;;;12.53;44.37;94002.66;5056973;28;20544;-56
2022/04/07 01:03:59;;;;;;;12.70;5.93;;;12.40;53.70;;;12.50;44.65;93986.31;5056229;28;20455;-56
2022/04/07 01:06:27;;;;;;;7.13;5.00;;;12.40;54.20;;;12.46;44.68;93991.13;5057475;28;21159;-55
2022/04/07 01:08:55;;;;;;;7.93;5.53;;;12.30;54.10;;;12.39;44.93;93984.88;5059747;28;20460;-56
2022/04/07 01:11:23;;;;;;;8.53;5.40;;;12.30;54.20;;;12.34;45.02;93980.13;5058089;28;20493;-58
2022/04/07 01:13:51;;;;;;;8.23;5.50;;;12.20;54.60;;;12.29;45.16;93977.22;5051848;28;21070;-57
2022/04/07 01:16:18;;;;;;;20.20;5.77;;;12.20;54.80;;;12.30;45.28;93983.28;5055391;28;20549;-54
2022/04/07 01:18:46;;;;;;;7.70;5.43;;;12.20;55.00;;;12.30;45.34;93975.38;5052709;28;20834;-55
2022/04/07 01:21:16;;;;;;;10.33;6.50;;;12.10;55.00;;;12.31;45.69;93972.56;5056498;28;20532;-53
2022/04/07 01:23:54;;;;;;;6.37;5.60;;;12.10;55.40;;;12.32;45.14;93963.69;5055991;28;20900;-54
2022/04/07 01:26:23;;;;;;;6.87;4.67;;;12.10;55.20;;;12.32;45.42;93953.13;5056715;28;21053;-56
2022/04/07 01:28:51;;;;;;;9.13;4.83;;;12.20;55.30;;;12.31;45.51;93958.56;5057382;28;20928;-55
2022/04/07 01:31:18;;;;;;;10.90;4.57;;;12.20;55.50;;;12.30;45.48;93965.69;5061257;28;20471;-55
2022/04/07 01:33:45;;;;;;;11.77;5.60;;;12.20;55.90;;;12.29;45.88;93948.19;5055233;28;20471;-56
2022/04/07 01:36:14;;;;;;;15.67;6.03;;;12.20;56.30;;;12.28;45.85;93940.47;5050164;28;21042;-57
2022/04/07 01:38:41;;;;;;;11.00;5.60;;;12.10;56.10;;;12.27;45.93;93930.91;5054059;28;20464;-57
2022/04/07 01:41:09;;;;;;;9.97;5.30;;;12.10;56.50;;;12.26;45.86;93926.66;5056298;28;20478;-56
2022/04/07 01:43:38;;;;;;;16.97;6.60;;;12.10;56.40;;;12.25;46.30;93911.81;5053809;28;20444;-53
2022/04/07 01:46:05;;;;;;;5.73;5.13;;;12.10;56.90;;;12.23;46.12;93908.53;5058739;28;20474;-56
2022/04/07 01:48:32;;;;;;;11.00;6.50;;;12.10;56.80;;;12.22;46.32;93904.25;5052319;28;20492;-54
2022/04/07 01:50:59;;;;;;;11.37;7.03;;;12.10;56.70;;;12.20;46.50;93897.31;5053372;28;20494;-54
2022/04/07 01:53:27;;;;;;;8.53;5.53;;;12.10;57.00;;;12.17;46.42;93900.31;5057846;28;20498;-55
2022/04/07 01:55:54;;;;;;;10.63;5.20;;;12.00;56.90;;;12.14;46.42;93898.00;5053989;28;20533;-54
2022/04/07 01:58:21;;;;;;;10.47;5.07;;;12.00;56.80;;;12.11;46.47;93898.38;5055987;28;20464;-54
2022/04/07 02:00:50;;;;;;;11.37;5.90;;;12.00;56.80;;;12.10;46.40;93891.47;5051019;28;20634;-56
2022/04/07 02:03:17;;;;;;;8.97;5.37;;;12.00;57.30;;;12.08;46.23;93880.25;5058211;28;20948;-56
2022/04/07 02:05:44;;;;;;;8.57;5.97;;;12.00;57.20;;;12.08;46.25;93882.91;5056627;28;20483;-56
2022/04/07 02:08:12;;;;;;;16.60;5.47;;;11.90;57.40;;;12.08;46.38;93893.44;5051707;28;20581;-53
2022/04/07 02:10:39;;;;;;;6.90;5.50;;;11.90;57.50;;;12.06;46.42;93886.72;5053007;28;20499;-59
2022/04/07 02:13:06;;;;;;;9.90;5.83;;;11.90;57.70;;;12.04;46.71;93884.25;5049975;28;20543;-55
2022/04/07 02:15:35;;;;;;;7.87;5.27;;;11.90;58.20;;;12.02;46.86;93878.31;5058543;28;20479;-54
2022/04/07 02:18:04;;;;;;;9.97;6.00;;;11.90;58.40;;;12.02;47.04;93870.41;5057070;28;20465;-54
2022/04/07 02:20:31;;;;;;;7.30;5.13;;;11.90;58.50;;;11.99;47.15;93868.97;5054442;28;20799;-55
2022/04/07 02:22:59;;;;;;;7.53;5.70;;;11.90;58.50;;;11.99;47.25;93865.47;5054095;28;20458;-58
2022/04/07 02:25:28;;;;;;;8.10;6.27;;;11.90;58.50;;;11.98;47.23;93866.50;5056003;28;20471;-55
2022/04/07 02:27:55;;;;;;;7.53;6.33;;;11.80;58.80;;;11.95;47.37;93856.31;5054568;28;20570;-56
2022/04/07 02:30:23;;;;;;;8.27;6.13;;;11.80;58.50;;;11.94;47.32;93857.28;5060075;28;20901;-55
2022/04/07 02:32:50;;;;;;;11.63;6.17;;;11.80;59.00;;;11.93;47.97;93853.00;5050058;28;20491;-55
2022/04/07 02:35:18;;;;;;;10.43;7.03;;;11.80;59.70;;;11.89;47.54;93849.06;5055538;28;20933;-55
2022/04/07 02:37:46;;;;;;;11.63;6.57;;;11.80;59.30;;;11.86;47.47;93854.69;5058176;28;20472;-55
2022/04/07 02:40:13;;;;;;;7.13;5.67;;;11.70;58.80;;;11.83;47.54;93842.66;5055376;28;20487;-55
2022/04/07 02:42:41;;;;;;;10.73;6.70;;;11.70;59.40;;;11.81;47.59;93824.38;5053035;28;20526;-55
2022/04/07 02:45:09;;;;;;;17.40;6.60;;;11.70;59.60;;;11.82;47.67;93826.03;5052489;28;20598;-55
2022/04/07 02:47:38;;;;;;;11.23;6.00;;;11.70;59.80;;;11.80;47.92;93822.75;5056805;28;20447;-55
2022/04/07 02:50:07;;;;;;;9.20;5.40;;;11.70;60.10;;;11.80;48.01;93820.13;5054727;28;20575;-55
2022/04/07 02:52:35;;;;;;;11.57;6.03;;;11.70;60.10;;;11.80;47.83;93811.38;5060416;28;21031;-56
2022/04/07 02:55:03;;;;;;;9.87;6.13;;;11.70;60.10;;;11.81;48.39;93807.78;5056034;28;20480;-55
2022/04/07 02:57:31;;;;;;;8.27;5.97;;;11.70;60.80;;;11.77;47.81;93788.03;5049505;28;20474;-56
2022/04/07 02:59:59;;;;;;;14.93;5.60;;;11.70;59.80;;;11.75;48.26;93787.38;5058722;28;20540;-58
2022/04/07 03:02:26;;;;;;;13.03;6.13;;;11.60;60.90;;;11.72;48.74;93793.00;5059561;28;21041;-56
2022/04/07 03:04:53;;;;;;;10.33;6.50;;;11.60;61.50;;;11.69;48.08;93788.88;5055602;28;20928;-55
2022/04/07 03:07:20;;;;;;;7.77;5.40;;;11.60;60.60;;;11.71;48.12;93802.72;5051626;28;20509;-57
2022/04/07 03:09:49;;;;;;;11.00;6.00;;;11.60;60.80;;;11.73;48.43;93797.28;5053341;28;20479;-56
2022/04/07 03:12:17;;;;;;;9.50;5.33;;;11.60;61.50;;;11.75;48.27;93782.94;5054174;28;20494;-55
2022/04/07 03:14:44;;;;;;;12.37;6.53;;;11.60;61.30;;;11.78;48.38;93774.69;5056871;28;20471;-56
2022/04/07 03:17:12;;;;;;;11.53;5.63;;;11.70;61.80;;;11.81;48.67;93766.44;5053523;28;21264;-55
2022/04/07 03:19:39;;;;;;;9.97;5.27;;;11.70;62.30;;;11.85;48.66;93766.91;5051628;28;20587;-56
2022/04/07 03:22:06;;;;;;;8.97;6.50;;;11.70;62.20;;;11.86;48.52;93763.28;5052550;28;20455;-58
2022/04/07 03:24:33;;;;;;;29.53;7.50;;;11.70;62.20;;;11.84;48.47;93770.53;5055638;28;20479;-57
2022/04/07 03:27:04;;;;;;;15.20;8.50;;;11.70;61.80;;;11.81;48.77;93771.69;5058690;28;20466;-56
2022/04/07 03:29:32;;;;;;;16.17;8.80;;;11.70;62.10;;;11.77;48.64;93764.31;5053599;28;20549;-56
2022/04/07 03:31:59;;;;;;;26.80;9.03;;;11.70;62.60;;;11.73;49.09;93763.84;5057221;28;20463;-55
2022/04/07 03:34:27;;;;;;;21.37;8.67;;;11.60;62.70;;;11.70;48.86;93761.56;5056668;28;20467;-56
2022/04/07 03:36:54;;;;;;;11.73;8.57;;;11.60;62.70;;;11.69;48.79;93754.66;5056425;28;20451;-56
2022/04/07 03:39:22;;;;;;;13.77;6.93;;;11.60;62.30;;;11.65;48.86;93745.47;5052158;28;20474;-55
2022/04/07 03:41:49;;;;;;;10.50;6.60;;;11.50;62.50;;;11.60;48.90;93739.91;5049935;28;21016;-58
2022/04/07 03:44:18;;;;;;;9.80;7.20;;;11.50;62.90;;;11.54;48.92;93737.94;5051388;28;20804;-56
2022/04/07 03:46:45;;;;;;;15.40;6.80;;;11.40;62.40;;;11.50;49.00;93720.88;5057190;28;21027;-56
2022/04/07 03:49:13;;;;;;;13.33;6.70;;;11.40;63.00;;;11.44;48.88;93707.41;5061611;28;20462;-56
2022/04/07 03:51:40;;;;;;;15.10;7.07;;;11.40;63.00;;;11.41;48.70;93701.66;5058999;28;20791;-58
2022/04/07 03:54:08;;;;;;;11.00;6.33;;;11.30;62.60;;;11.38;49.13;93718.63;5054001;28;20487;-56
2022/04/07 03:56:35;;;;;;;13.43;6.33;;;11.30;63.10;;;11.38;48.76;93715.19;5058244;28;20555;-56
2022/04/07 03:59:02;;;;;;;17.60;6.10;;;11.30;62.60;;;11.36;49.26;93699.56;5062163;28;20463;-53
2022/04/07 04:01:31;;;;;;;9.23;6.20;;;11.30;63.30;;;11.36;49.18;93699.56;5057419;28;20464;-54
2022/04/07 04:03:58;;;;;;;7.90;6.60;;;11.20;63.30;;;11.37;49.14;93713.53;5054186;28;20459;-56
2022/04/07 04:06:25;;;;;;;17.60;7.77;;;11.20;63.40;;;11.37;49.03;93714.38;5053706;28;21106;-54
2022/04/07 04:08:53;;;;;;;16.07;7.63;;;11.30;63.30;;;11.38;49.32;93726.53;5055984;28;20450;-56
2022/04/07 04:11:20;;;;;;;9.17;6.33;;;11.30;64.10;;;11.40;49.33;93731.63;5056930;28;20483;-54
2022/04/07 04:13:47;;;;;;;17.63;6.73;;;11.30;64.10;;;11.40;49.28;93734.25;5054257;28;20487;-55
2022/04/07 04:16:17;;;;;;;15.03;6.47;;;11.30;64.00;;;11.41;49.24;93736.72;5054421;28;20478;-55
2022/04/07 04:18:46;;;;;;;8.57;5.27;;;11.30;64.10;;;11.41;48.91;93741.16;5054232;28;20539;-55
2022/04/07 04:21:13;;;;;;;8.93;6.17;;;11.30;63.40;;;11.41;49.10;93743.78;5055297;28;20482;-56
2022/04/07 04:23:41;;;;;;;14.17;7.40;;;11.30;63.40;;;11.40;48.96;93742.16;5057858;28;20455;-55
2022/04/07 04:26:08;;;;;;;10.90;6.40;;;11.30;63.40;;;11.38;49.19;93744.94;5052257;28;20555;-56
2022/04/07 04:28:35;;;;;;;30.73;7.07;;;11.30;63.60;;;11.36;49.83;93735.59;5055675;28;20452;-57
2022/04/07 04:31:03;;;;;;;11.40;6.17;;;11.20;64.70;;;11.34;49.38;93740.19;5055389;28;20491;-55
2022/04/07 04:33:30;;;;;;;9.57;6.63;;;11.20;64.00;;;11.32;49.44;93736.94;5056388;28;20495;-55
2022/04/07 04:35:59;;;;;;;9.50;6.33;;;11.20;64.00;;;11.29;49.71;93732.81;5060006;28;20479;-56
2022/04/07 04:38:26;;;;;;;9.30;6.00;;;11.20;65.10;;;11.27;49.79;93725.09;5051190;28;21066;-55
2022/04/07 04:40:53;;;;;;;11.07;5.77;;;11.20;64.90;;;11.28;49.98;93728.56;5054611;28;20483;-54
2022/04/07 04:43:21;;;;;;;12.90;7.13;;;11.20;65.40;;;11.29;49.87;93731.03;5060313;28;20831;-56
2022/04/07 04:45:48;;;;;;;10.80;6.17;;;11.20;65.40;;;11.32;50.18;93735.09;5057791;28;20912;-55
2022/04/07 04:48:15;;;;;;;10.90;6.90;;;11.20;66.10;;;11.31;50.35;93730.84;5059441;28;20827;-56
2022/04/07 04:50:42;;;;;;;7.43;5.13;;;11.20;66.20;;;11.26;50.40;93731.38;5055234;28;21091;-56
2022/04/07 04:53:11;;;;;;;6.83;5.53;;;11.20;66.60;;;11.24;50.85;93735.16;5058049;28;20585;-58
2022/04/07 04:55:39;;;;;;;7.77;5.73;;;11.10;67.40;;;11.23;50.73;93734.34;5058612;28;20478;-56
2022/04/07 04:58:06;;;;;;;11.13;6.37;;;11.10;67.30;;;11.26;50.87;93735.78;5058733;28;20466;-55
2022/04/07 05:00:34;;;;;;;17.70;6.10;;;11.10;68.20;;;11.28;51.07;93731.19;5056805;28;20478;-55
2022/04/07 05:03:01;;;;;;;10.80;5.60;;;11.20;68.30;;;11.32;50.90;93732.47;5049511;28;21025;-55
2022/04/07 05:05:28;;;;;;;7.80;5.37;;;11.20;68.30;;;11.35;52.65;93718.97;5060468;28;20479;-55
2022/04/07 05:07:55;;;;;;;12.80;6.20;;;11.20;70.90;;;11.34;53.86;93712.09;5057690;28;20456;-56
2022/04/07 05:10:25;;;;;;;8.07;5.33;;;11.20;73.30;;;11.32;52.25;93714.03;5058092;28;20470;-56
2022/04/07 05:12:52;;;;;;;8.80;5.57;;;11.20;71.30;;;11.29;51.91;93695.97;5052896;28;20580;-56
2022/04/07 05:15:20;;;;;;;9.03;5.70;;;11.20;70.50;;;11.34;51.77;93696.28;5057115;28;20479;-56
2022/04/07 05:17:50;;;;;;;7.80;6.20;;;11.20;70.50;;;11.38;52.03;93723.88;5060122;28;20470;-56
2022/04/07 05:20:17;;;;;;;7.10;5.27;;;11.20;70.60;;;11.46;51.61;93709.84;5058913;28;20495;-57
2022/04/07 05:22:45;;;;;;;8.70;4.87;;;11.30;70.60;;;11.55;51.88;93710.63;5053289;28;20471;-55
2022/04/07 05:25:12;;;;;;;12.73;5.77;;;11.40;70.70;;;11.69;51.15;93717.78;5053591;28;20486;-55
2022/04/07 05:27:43;;;;;;;7.37;4.57;;;11.50;70.10;;;11.84;50.84;93718.66;5055580;28;20447;-55
2022/04/07 05:30:15;;;;;;;13.10;5.80;;;11.60;69.50;;;11.99;50.95;93710.00;5058650;28;20917;-55
2022/04/07 05:32:43;;;;;;;5.47;4.93;;;11.80;69.80;;;12.12;51.17;93704.97;5055118;28;20530;-55
2022/04/07 05:35:10;;;;;;;13.10;6.20;;;11.90;69.90;;;12.25;50.72;93709.63;5056200;28;20475;-55
2022/04/07 05:37:37;;;;;;;11.00;6.70;;;12.00;69.20;;;12.40;50.58;93716.75;5054111;28;20455;-57
2022/04/07 05:40:06;;;;;;;10.60;5.67;;;12.20;69.50;;;12.51;51.51;93708.41;5055883;28;20467;-55
2022/04/07 05:42:36;;;;;;;8.87;6.70;;;12.30;70.90;;;12.61;50.31;93703.69;5059818;28;20836;-57
2022/04/07 05:45:05;;;;;;;12.33;6.27;;;12.40;68.90;;;12.69;50.47;93698.31;5055588;28;20558;-55
2022/04/07 05:47:39;;;;;;;9.67;5.77;;;12.50;69.20;;;12.76;50.38;93685.22;5055304;28;20543;-56
2022/04/07 05:50:08;;;;;;;21.30;7.43;;;12.60;69.30;;;12.83;50.16;93685.31;5053955;28;20483;-54
2022/04/07 05:52:36;;;;;;;7.63;6.20;;;12.60;68.50;;;12.85;50.41;93678.84;5056697;28;20458;-54
2022/04/07 05:55:04;;;;;;;13.63;6.53;;;12.70;68.40;;;12.87;49.81;93679.50;5059583;28;20491;-56
2022/04/07 05:57:31;;;;;;;9.00;6.83;;;12.70;67.60;;;12.89;49.51;93672.19;5053989;28;20452;-55
2022/04/07 06:00:06;;;;;;;24.13;6.43;;;12.70;67.00;;;12.95;49.84;93667.19;5059223;28;20471;-56
2022/04/07 06:02:33;;;;;;;15.43;6.70;;;12.80;67.40;;;13.01;49.64;93666.44;5055035;28;20454;-56
2022/04/07 06:05:00;;;;;;;15.13;7.40;;;12.80;67.60;;;13.06;49.43;93664.91;5057746;28;20592;-57
2022/04/07 06:07:28;;;;;;;14.50;6.50;;;12.90;67.10;;;13.15;49.35;93657.69;5051021;28;20960;-58
2022/04/07 06:09:55;;;;;;;14.13;6.33;;;12.90;66.90;;;13.22;49.34;93657.75;5049134;28;20475;-57
2022/04/07 06:12:23;;;;;;;15.30;7.60;;;13.00;66.50;;;13.26;49.06;93653.72;5050805;28;20481;-56
2022/04/07 06:14:50;;;;;;;16.33;6.53;;;13.10;66.60;;;13.30;49.11;93654.19;5057652;28;20490;-54
2022/04/07 06:17:18;;;;;;;22.53;7.90;;;13.10;66.00;;;13.31;48.78;93655.81;5054007;28;20482;-57
2022/04/07 06:19:46;;;;;;;18.50;7.30;;;13.10;66.00;;;13.28;48.85;93657.81;5054887;28;21047;-56
2022/04/07 06:22:13;;;;;;;32.23;7.10;;;13.10;65.90;;;13.27;49.32;93666.75;5056607;28;20459;-53
2022/04/07 06:24:40;;;;;;;10.40;6.87;;;13.10;66.00;;;13.25;48.95;93647.63;5058556;28;21006;-53
2022/04/07 06:27:08;;;;;;;34.23;7.83;;;13.10;66.00;;;13.28;49.05;93647.25;5057461;28;20463;-55
2022/04/07 06:29:35;;;;;;;23.77;8.33;;;13.10;66.00;;;13.32;49.17;93642.41;5058039;28;20490;-56
2022/04/07 06:32:02;;;;;;;27.53;8.33;;;13.10;66.00;;;13.40;49.10;93652.91;5050175;28;20452;-56
2022/04/07 06:34:31;;;;;;;20.00;8.77;;;13.20;66.10;;;13.48;48.83;93646.69;5051113;28;20491;-58
2022/04/07 06:37:00;;;;;;;24.40;9.10;;;13.30;66.20;;;13.56;48.60;93649.22;5053226;28;20456;-55
2022/04/07 06:39:27;;;;;;;18.90;7.93;;;13.30;65.70;;;13.61;48.03;93646.81;5055963;28;20458;-57
2022/04/07 06:41:55;;;;;;;17.43;8.30;;;13.40;64.80;;;13.66;48.32;93642.78;5054667;28;20547;-57
2022/04/07 06:44:22;;;;;;;24.77;8.10;;;13.50;64.80;;;13.74;47.96;93651.44;5050181;28;20876;-57
2022/04/07 06:46:50;;;;;;;18.23;5.40;;;13.50;63.80;;;13.80;47.23;93648.03;5049979;28;20542;-55
2022/04/07 06:49:18;;;;;;;9.53;5.60;;;13.60;62.10;;;13.85;46.42;93644.81;5055042;28;20488;-56
2022/04/07 06:51:47;;;;;;;16.03;4.87;;;13.70;60.70;;;13.90;46.42;93631.84;5055203;28;20952;-57
2022/04/07 06:54:14;;;;;;;15.60;5.03;;;13.70;60.10;;;13.99;46.10;93635.97;5057703;28;20482;-54
2022/04/07 06:56:42;;;;;;;9.80;4.33;;;13.80;60.10;;;14.07;46.09;93628.94;5057647;28;21035;-57
2022/04/07 06:59:10;;;;;;;7.60;5.30;;;13.90;59.90;;;14.12;45.58;93639.72;5053810;28;20452;-58
2022/04/07 07:01:37;;;;;;;15.13;6.37;;;13.90;59.10;;;14.11;45.55;93620.41;5057737;28;20471;-56
2022/04/07 07:04:05;;;;;;;5.37;4.87;;;13.90;58.70;;;14.10;45.55;93624.06;5053602;28;21093;-55
2022/04/07 07:06:32;;;;;;;13.17;5.77;;;13.90;58.30;;;14.08;45.09;93619.97;5050518;28;20474;-55
2022/04/07 07:09:01;;;;;;;11.13;6.03;;;14.00;58.20;;;14.14;45.35;93638.53;5050363;28;20905;-56
2022/04/07 07:11:29;;;;;;;16.07;6.50;;;14.00;58.30;;;14.21;45.25;93633.28;5055102;28;20471;-55
2022/04/07 07:13:56;;;;;;;13.17;7.30;;;14.00;58.10;;;14.30;44.61;93633.97;5055896;28;20973;-57
2022/04/07 07:16:26;;;;;;;23.23;6.30;;;14.10;57.90;;;14.31;44.41;93643.53;5054872;28;20511;-56
2022/04/07 07:18:54;;;;;;;10.83;5.80;;;14.10;57.40;;;14.25;44.68;93637.19;5050078;28;20448;-56
2022/04/07 07:21:21;;;;;;;12.57;6.53;;;14.10;57.20;;;14.19;44.64;93632.69;5054108;28;20529;-53
2022/04/07 07:23:49;;;;;;;11.10;5.20;;;14.00;57.30;;;14.18;44.54;93625.75;5057099;28;20458;-55
2022/04/07 07:26:18;;;;;;;8.97;6.50;;;14.00;57.50;;;14.22;44.74;93629.66;5061309;28;20475;-56
2022/04/07 07:28:45;;;;;;;13.00;4.90;;;14.00;57.60;;;14.26;45.22;93616.84;5062251;28;20478;-56
2022/04/07 07:31:12;;;;;;;16.90;5.50;;;14.10;57.90;;;14.32;44.80;93616.06;5057983;28;20462;-55
2022/04/07 07:33:40;;;;;;;8.13;5.33;;;14.10;57.60;;;14.31;44.67;93599.41;5054247;28;20495;-56
2022/04/07 07:36:07;;;;;;;5.00;4.50;;;14.10;57.50;;;14.32;44.39;93606.28;5060059;28;20479;-57
2022/04/07 07:38:35;;;;;;;17.67;6.13;;;14.10;57.20;;;14.38;44.69;93591.50;5051919;28;20481;-57
2022/04/07 07:41:02;;;;;;;10.80;5.67;;;14.20;57.30;;;14.62;44.19;93608.72;5054368;28;20471;-57
2022/04/07 07:43:31;;;;;;;14.30;5.60;;;14.40;57.10;;;14.77;44.19;93598.03;5058813;28;20446;-57
2022/04/07 07:45:58;;;;;;;10.17;4.90;;;14.50;56.90;;;14.92;43.86;93597.06;5060653;28;20474;-55
2022/04/07 07:48:27;;;;;;;8.90;6.13;;;14.70;56.50;;;15.02;43.58;93593.03;5058844;28;20509;-59
2022/04/07 07:50:55;;;;;;;5.37;4.50;;;14.80;56.10;;;15.18;43.39;93593.69;5054775;28;20567;-56
2022/04/07 07:53:22;;;;;;;9.07;5.50;;;14.90;55.70;;;15.31;43.20;93583.13;5052975;28;20523;-57
2022/04/07 07:55:50;;;;;;;7.13;5.10;;;15.00;55.40;;;15.32;42.35;93587.41;5057330;28;20467;-57
2022/04/07 07:58:17;;;;;;;8.20;4.40;;;15.10;54.40;;;15.21;42.66;93566.78;5058242;28;20458;-57
2022/04/07 08:00:46;;;;;;;12.13;4.87;;;15.10;54.50;;;15.17;42.76;93573.53;5059250;28;20474;-56
2022/04/07 08:03:13;;;;;;;23.20;5.40;;;15.00;54.40;;;15.27;42.79;93573.94;5054314;28;20451;-56
2022/04/07 08:05:41;;;;;;;7.87;5.07;;;15.10;54.70;;;15.36;42.65;93564.78;5053882;28;20486;-58
2022/04/07 08:08:11;;;;;;;23.10;6.07;;;15.10;54.60;;;15.41;42.65;93551.78;5056413;28;20569;-57
2022/04/07 08:10:38;;;;;;;10.43;5.57;;;15.20;54.70;;;15.53;42.72;93553.81;5060390;28;20582;-56
2022/04/07 08:13:05;;;;;;;10.43;4.87;;;15.30;54.70;;;15.85;42.92;93546.06;5053540;28;20535;-56
2022/04/07 08:15:34;;;;;;;14.60;6.17;;;15.60;55.10;;;16.39;42.40;93565.38;5058534;28;20559;-54
2022/04/07 08:18:03;;;;;;;11.70;5.40;;;16.00;54.70;;;16.92;41.60;93546.66;5059496;28;20832;-58
2022/04/07 08:20:30;;;;;;;8.80;5.13;;;16.60;53.70;;;17.30;40.65;93542.38;5057725;28;20663;-56
2022/04/07 08:22:58;;;;;;;12.50;5.43;;;17.00;52.20;;;17.44;39.77;93545.75;5059394;28;20971;-55
2022/04/07 08:25:25;;;;;;;17.43;5.67;;;17.20;51.20;;;17.45;39.70;93531.44;5054538;28;21041;-56
2022/04/07 08:27:52;;;;;;;11.17;5.33;;;17.20;50.30;;;17.45;39.60;93544.75;5053915;28;20784;-56
2022/04/07 08:30:20;;;;;;;11.37;5.63;;;17.20;50.30;;;17.55;39.54;93524.63;5060445;28;20482;-57
2022/04/07 08:32:47;;;;;;;9.03;4.27;;;17.40;50.50;;;17.82;39.11;93532.38;5056909;28;20456;-57
2022/04/07 08:35:16;;;;;;;13.20;4.83;;;17.70;50.30;;;18.23;38.50;93524.88;5061639;28;20495;-56
2022/04/07 08:37:43;;;;;;;8.20;4.60;;;18.00;49.40;;;18.53;38.56;93529.47;5062395;28;20501;-57
2022/04/07 08:40:11;;;;;;;14.73;4.47;;;18.40;49.40;;;18.89;37.89;93523.34;5057324;28;20520;-56
2022/04/07 08:42:38;;;;;;;7.70;4.37;;;18.70;48.50;;;18.86;36.81;93533.66;5061129;28;20456;-57
2022/04/07 08:45:07;;;;;;;11.40;5.10;;;18.80;47.20;;;18.57;37.32;93530.66;5058940;28;20532;-57
2022/04/07 08:47:35;;;;;;;15.70;4.70;;;18.60;47.20;;;18.23;37.27;93524.88;5054014;28;20458;-55
2022/04/07 08:50:03;;;;;;;7.47;4.70;;;18.30;47.10;;;18.01;37.94;93521.81;5057274;28;20475;-57
2022/04/07 08:52:33;;;;;;;8.87;4.57;;;18.00;47.50;;;17.72;38.18;93527.56;5054238;28;20879;-57
2022/04/07 08:55:00;;;;;;;26.33;5.10;;;17.80;47.40;;;17.46;38.31;93517.13;5060048;28;20494;-56
2022/04/07 08:57:29;;;;;;;4.73;4.33;;;17.50;47.10;;;17.24;38.11;93522.78;5056876;28;20461;-57
2022/04/07 08:59:57;;;;;;;10.00;4.90;;;17.20;47.60;;;17.14;38.61;93531.22;5060518;28;20464;-55
2022/04/07 09:02:24;;;;;;;21.10;5.83;;;17.00;48.40;;;17.04;38.94;93528.22;5054955;28;20463;-55
2022/04/07 09:04:58;;;;;;;7.63;5.10;;;16.90;48.80;;;16.93;39.24;93518.25;5056673;28;20935;-56
2022/04/07 09:07:32;;;;;;;10.07;5.30;;;16.80;49.30;;;16.83;39.90;93511.53;5060495;28;20463;-56
2022/04/07 09:10:00;;;;;;;12.67;5.10;;;16.70;49.50;;;16.77;39.75;93517.69;5060405;28;20466;-56
2022/04/07 09:12:28;;;;;;;7.20;5.33;;;16.60;50.00;;;16.70;39.76;93532.84;5060046;28;20997;-55
2022/04/07 09:14:59;;;;;;;7.00;5.63;;;16.50;50.00;;;16.63;39.92;93542.66;5052052;28;20490;-55
2022/04/07 09:17:27;;;;;;;12.93;5.70;;;16.40;50.20;;;16.45;40.47;93536.22;5058188;28;20443;-55
2022/04/07 09:19:54;;;;;;;16.03;5.10;;;16.30;50.50;;;16.35;40.63;93546.44;5054840;28;20512;-56
2022/04/07 09:22:30;;;;;;;7.80;5.60;;;16.10;51.10;;;16.20;40.51;93535.22;5053483;28;20455;-55
2022/04/07 09:24:59;;;;;;;7.53;6.17;;;16.00;50.80;;;16.03;40.83;93543.63;5051449;28;20525;-56
2022/04/07 09:27:27;;;;;;;12.00;6.00;;;15.90;51.10;;;15.92;41.10;93539.75;5055677;28;20467;-56
2022/04/07 09:29:56;;;;;;;14.90;6.83;;;15.70;51.00;;;15.82;41.47;93543.84;5057226;28;20472;-57
2022/04/07 09:32:24;;;;;;;14.73;5.83;;;15.60;51.60;;;15.67;41.68;93544.84;5057351;28;20474;-57
2022/04/07 09:34:55;;;;;;;7.00;4.50;;;15.50;52.20;;;15.45;41.92;93546.06;5057698;28;20501;-56
2022/04/07 09:37:22;;;;;;;20.63;6.50;;;15.40;52.50;;;15.27;42.49;93544.00;5058731;28;20467;-55
2022/04/07 09:39:50;;;;;;;8.00;5.67;;;15.10;52.70;;;15.13;42.92;93546.59;5058571;28;20467;-57
2022/04/07 09:42:26;;;;;;;7.87;6.00;;;15.00;53.10;;;15.01;43.31;93554.34;5056032;28;20454;-54
2022/04/07 09:44:55;;;;;;;21.33;6.53;;;14.90;53.80;;;14.95;42.94;93555.13;5050900;28;20566;-57
2022/04/07 09:47:22;;;;;;;7.60;6.37;;;14.80;54.00;;;14.90;43.33;93554.91;5058354;28;20547;-55
2022/04/07 09:49:50;;;;;;;22.53;7.00;;;14.70;54.20;;;14.89;43.94;93558.56;5052572;28;20467;-55
2022/04/07 09:52:21;;;;;;;20.67;6.37;;;14.70;55.00;;;14.89;43.88;93569.16;5059304;28;20502;-56
2022/04/07 09:54:51;;;;;;;8.83;6.57;;;14.70;54.90;;;14.88;43.94;93570.16;5061467;28;20518;-56
2022/04/07 09:57:20;;;;;;;12.60;5.30;;;14.70;55.50;;;14.87;43.57;93582.59;5056593;28;20452;-57
2022/04/07 09:59:49;;;;;;;9.13;5.60;;;14.70;55.10;;;14.87;43.53;93587.91;5052152;28;20563;-55
2022/04/07 10:02:18;;;;;;;10.80;5.63;;;14.60;55.00;;;14.86;44.68;93582.78;5055537;28;20456;-56
2022/04/07 10:04:45;;;;;;;16.80;7.17;;;14.60;56.50;;;14.82;45.85;93586.84;5057459;28;20569;-56
2022/04/07 10:07:12;;;;;;;18.97;8.80;;;14.60;58.50;;;14.74;47.00;93598.41;5056518;28;20505;-56
2022/04/07 10:09:41;;;;;;;18.80;7.23;;;14.50;60.40;;;14.66;48.36;93590.66;5052583;28;20476;-57
2022/04/07 10:12:10;;;;;;;14.87;8.70;;;14.50;63.50;;;14.52;49.62;93585.25;5053073;28;20557;-57
2022/04/07 10:14:38;;;;;;;13.53;7.87;;;14.40;67.30;;;14.45;50.97;93588.88;5057918;28;20491;-56
2022/04/07 10:17:07;;;;;;;12.53;7.13;;;14.30;70.10;;;14.36;51.88;93582.94;5054773;28;20943;-54
2022/04/07 10:19:37;;;;;;;13.10;8.50;;;14.20;71.90;;;14.27;53.35;93574.34;5053012;28;20471;-58